Time;durP1;ratioP1;P1;durP2;ratioP2;P2;SDS_P1;SDS_P2;PMS_P1;PMS_P2;Temp;Humidity;BMP_temperature;BMP_pressure;BME280_temperature;BME280_humidity;BME280_pressure;Samples;Min_cycle;Max_cycle;Signal;HPM_P1;HPM_P2
2024/02/15 00:01:26;;;;;;;0.40;0.40;;;;;;;2.84;100.00;100551.50;5066297;28;20084;-69
2024/02/15 00:03:51;;;;;;;0.40;0.40;;;;;;;2.85;100.00;100554.09;5066531;28;20021;-69
2024/02/15 00:06:17;;;;;;;0.50;0.50;;;;;;;2.83;100.00;100554.84;5066227;28;20097;-70
2024/02/15 00:08:42;;;;;;;0.50;0.50;;;;;;;2.84;100.00;100556.63;5066124;28;20047;-68
2024/02/15 00:11:09;;;;;;;0.50;0.50;;;;;;;2.85;100.00;100560.91;5065976;28;20085;-68
2024/02/15 00:13:35;;;;;;;0.40;0.40;;;;;;;2.79;100.00;100553.06;5048270;28;20028;-69
2024/02/15 00:16:01;;;;;;;0.40;0.40;;;;;;;2.82;100.00;100558.25;5048161;28;20028;-68
2024/02/15 00:18:27;;;;;;;0.40;0.40;;;;;;;2.83;100.00;100562.56;5065170;28;20021;-68
2024/02/15 00:20:52;;;;;;;0.40;0.40;;;;;;;2.82;100.00;100559.13;5066040;28;20025;-68
2024/02/15 00:23:18;;;;;;;0.40;0.40;;;;;;;2.81;100.00;100561.66;5065701;28;20021;-68
2024/02/15 00:25:44;;;;;;;0.50;0.50;;;;;;;2.81;100.00;100561.66;5066370;28;20100;-69
2024/02/15 00:28:13;;;;;;;0.40;0.40;;;;;;;2.80;100.00;100555.66;5066587;28;20024;-69
2024/02/15 00:30:38;;;;;;;0.40;0.40;;;;;;;2.84;100.00;100566.88;5065934;28;20048;-69
2024/02/15 00:33:04;;;;;;;0.40;0.40;;;;;;;2.83;100.00;100557.41;5065932;28;20546;-69
2024/02/15 00:35:29;;;;;;;0.40;0.40;;;;;;;2.82;100.00;100560.81;5065938;28;20413;-70
2024/02/15 00:37:54;;;;;;;0.50;0.50;;;;;;;2.83;100.00;100568.56;5047707;28;20029;-68
2024/02/15 00:40:21;;;;;;;0.50;0.50;;;;;;;2.85;100.00;100568.59;5065836;28;20028;-67
2024/02/15 00:42:46;;;;;;;0.50;0.50;;;;;;;2.84;100.00;100570.28;5065571;28;20025;-67
2024/02/15 00:45:12;;;;;;;0.40;0.40;;;;;;;2.79;100.00;100550.50;5065545;28;20077;-69
2024/02/15 00:47:38;;;;;;;0.40;0.40;;;;;;;2.82;100.00;100558.25;5065652;28;20086;-68
2024/02/15 00:50:04;;;;;;;0.50;0.50;;;;;;;2.80;100.00;100560.78;5047361;28;20017;-68
2024/02/15 00:52:30;;;;;;;0.40;0.40;;;;;;;2.85;100.00;100563.47;5065350;28;20039;-68
2024/02/15 00:54:56;;;;;;;0.40;0.40;;;;;;;2.86;100.00;100560.06;5047487;28;20096;-69
2024/02/15 00:57:21;;;;;;;0.50;0.50;;;;;;;2.87;100.00;100566.06;5065637;28;20021;-68
2024/02/15 00:59:47;;;;;;;0.40;0.40;;;;;;;2.83;100.00;100562.56;5047079;28;20052;-68
2024/02/15 01:02:13;;;;;;;0.40;0.40;;;;;;;2.85;100.00;100569.47;5047499;28;20021;-68
2024/02/15 01:04:38;;;;;;;0.43;0.43;;;;;;;2.85;100.00;100572.03;5065062;28;20044;-69
2024/02/15 01:07:04;;;;;;;0.40;0.40;;;;;;;2.87;100.00;100564.38;5064994;28;20029;-68
2024/02/15 01:09:29;;;;;;;0.50;0.50;;;;;;;2.89;100.00;100579.81;5047016;28;20031;-68
2024/02/15 01:11:55;;;;;;;0.40;0.40;;;;;;;2.84;100.00;100577.97;5065141;28;20517;-69
2024/02/15 01:14:20;;;;;;;0.40;0.40;;;;;;;2.87;100.00;100581.47;5065192;28;20094;-68
2024/02/15 01:16:46;;;;;;;0.50;0.50;;;;;;;2.82;100.00;100578.78;5064677;28;20092;-69
2024/02/15 01:19:12;;;;;;;0.40;0.40;;;;;;;2.87;100.00;100581.47;5064777;28;20032;-68
2024/02/15 01:21:37;;;;;;;0.40;0.40;;;;;;;2.83;100.00;100575.38;5064933;28;20117;-68
2024/02/15 01:24:06;;;;;;;0.40;0.40;;;;;;;2.79;100.00;100573.56;5046839;28;20025;-68
2024/02/15 01:26:32;;;;;;;0.40;0.40;;;;;;;2.84;100.00;100572.84;5064838;28;20544;-68
2024/02/15 01:28:57;;;;;;;0.50;0.50;;;;;;;2.84;100.00;100574.56;5064632;28;20047;-68
2024/02/15 01:31:22;;;;;;;0.40;0.40;;;;;;;2.81;100.00;100574.50;5064824;28;20029;-68
2024/02/15 01:33:48;;;;;;;0.50;0.50;;;;;;;2.84;100.00;100569.44;5064728;28;20045;-68
2024/02/15 01:36:17;;;;;;;0.40;0.40;;;;;;;2.77;100.00;100562.38;5064886;28;20025;-68
2024/02/15 01:38:44;;;;;;;0.50;0.50;;;;;;;2.78;100.00;100562.44;5064601;28;20025;-69
2024/02/15 01:41:09;;;;;;;0.40;0.40;;;;;;;2.80;100.00;100565.91;5064812;28;20036;-69
2024/02/15 01:43:38;;;;;;;0.40;0.40;;;;;;;2.84;100.00;100567.72;5064817;28;20033;-70
2024/02/15 01:46:10;;;;;;;0.50;0.50;;;;;;;2.80;100.00;100557.34;5064596;28;20021;-68
2024/02/15 01:48:36;;;;;;;0.40;0.40;;;;;;;2.84;100.00;100562.59;5064880;28;20025;-69
2024/02/15 01:51:03;;;;;;;0.40;0.40;;;;;;;2.87;100.00;100568.63;5064720;28;20107;-68
2024/02/15 01:53:30;;;;;;;0.40;0.40;;;;;;;2.84;100.00;100567.72;5046391;28;20024;-68
2024/02/15 01:55:57;;;;;;;0.40;0.40;;;;;;;2.83;100.00;100572.81;5046788;28;20069;-69
2024/02/15 01:58:25;;;;;;;0.50;0.50;;;;;;;2.83;100.00;100578.81;5046807;28;20370;-68
2024/02/15 02:00:51;;;;;;;0.50;0.50;;;;;;;2.85;100.00;100568.59;5064714;28;20029;-68
2024/02/15 02:03:16;;;;;;;0.40;0.40;;;;;;;2.83;100.00;100565.13;5064722;28;20021;-69
2024/02/15 02:05:42;;;;;;;0.47;0.47;;;;;;;2.86;100.00;100565.19;5046472;28;20028;-68
2024/02/15 02:08:09;;;;;;;0.50;0.50;;;;;;;2.77;100.00;100539.31;5064580;28;20052;-68
2024/02/15 02:10:38;;;;;;;0.40;0.40;;;;;;;2.85;100.00;100561.78;5064499;28;20024;-69
2024/02/15 02:13:03;;;;;;;0.43;0.43;;;;;;;2.83;100.00;100549.72;5046269;28;20041;-68
2024/02/15 02:15:31;;;;;;;0.50;0.50;;;;;;;2.83;100.00;100544.59;5064252;28;20021;-68
2024/02/15 02:17:58;;;;;;;0.77;0.75;;;;;;;2.83;100.00;100539.47;5064829;28;20025;-69
2024/02/15 02:20:25;;;;;;;0.50;0.50;;;;;;;2.82;100.00;100542.88;5046368;28;20028;-69
2024/02/15 02:22:55;;;;;;;0.40;0.40;;;;;;;2.80;100.00;100540.28;5064054;28;20021;-69
2024/02/15 02:25:20;;;;;;;0.40;0.40;;;;;;;2.81;100.00;100541.16;5064535;28;20093;-68
2024/02/15 02:27:47;;;;;;;0.40;0.40;;;;;;;2.82;100.00;100543.75;5046165;28;20029;-70
2024/02/15 02:30:15;;;;;;;0.47;0.47;;;;;;;2.82;100.00;100533.50;5064366;28;20048;-69
2024/02/15 02:32:43;;;;;;;0.40;0.40;;;;;;;2.79;100.00;100528.28;5064273;28;20115;-69
2024/02/15 02:35:11;;;;;;;0.47;0.47;;;;;;;2.80;100.00;100526.56;5064187;28;20037;-69
2024/02/15 02:37:37;;;;;;;0.43;0.43;;;;;;;2.79;100.00;100522.28;5045911;28;20414;-69
2024/02/15 02:40:04;;;;;;;0.50;0.50;;;;;;;2.79;100.00;100528.28;5064673;28;20086;-69
2024/02/15 02:42:30;;;;;;;0.40;0.40;;;;;;;2.79;100.00;100537.66;5068243;28;20028;-70
2024/02/15 02:44:55;;;;;;;0.40;0.40;;;;;;;2.78;100.00;100530.81;5067920;28;20056;-69
2024/02/15 02:47:21;;;;;;;0.40;0.40;;;;;;;2.80;100.00;100530.00;5067643;28;20028;-69
2024/02/15 02:49:46;;;;;;;0.40;0.40;;;;;;;2.79;100.00;100523.16;5067697;28;20024;-67
2024/02/15 02:52:12;;;;;;;0.40;0.40;;;;;;;2.80;100.00;100526.56;5067651;28;20024;-69
2024/02/15 02:54:37;;;;;;;0.52;0.52;;;;;;;2.81;100.00;100528.31;5067652;28;20107;-69
2024/02/15 02:57:06;;;;;;;0.40;0.40;;;;;;;2.79;100.00;100522.28;5049883;28;20036;-69
2024/02/15 02:59:33;;;;;;;0.50;0.50;;;;;;;2.77;100.00;100518.81;5067514;28;20049;-69
2024/02/15 03:01:59;;;;;;;0.40;0.40;;;;;;;2.71;100.00;100511.84;5049529;28;20032;-69
2024/02/15 03:04:24;;;;;;;0.43;0.43;;;;;;;2.70;100.00;100518.66;5067355;28;20029;-68
2024/02/15 03:06:50;;;;;;;0.50;0.50;;;;;;;2.71;100.00;100522.97;5067411;28;20096;-69
2024/02/15 03:09:15;;;;;;;0.40;0.40;;;;;;;2.72;100.00;100519.56;5067383;28;20036;-69
2024/02/15 03:11:41;;;;;;;0.43;0.43;;;;;;;2.74;100.00;100524.72;5067402;28;20029;-69
2024/02/15 03:14:06;;;;;;;0.40;0.40;;;;;;;2.70;100.00;100523.78;5067161;28;20025;-68
2024/02/15 03:16:32;;;;;;;0.40;0.40;;;;;;;2.70;100.00;100536.59;5049214;28;20090;-69
2024/02/15 03:18:57;;;;;;;0.50;0.50;;;;;;;2.68;100.00;100534.84;5067339;28;20029;-69
2024/02/15 03:21:23;;;;;;;0.40;0.40;;;;;;;2.64;100.00;100517.63;5067074;28;20021;-69
2024/02/15 03:23:48;;;;;;;0.40;0.40;;;;;;;2.65;100.00;100525.34;5066999;28;20024;-69
2024/02/15 03:26:14;;;;;;;0.40;0.40;;;;;;;2.70;100.00;100528.06;5067138;28;20021;-69
2024/02/15 03:28:39;;;;;;;0.50;0.50;;;;;;;2.69;100.00;100532.31;5049049;28;20093;-68
2024/02/15 03:31:05;;;;;;;0.40;0.40;;;;;;;2.66;100.00;100536.47;5066955;28;20020;-68
2024/02/15 03:33:34;;;;;;;0.40;0.40;;;;;;;2.65;100.00;100535.59;5066630;28;20078;-68
2024/02/15 03:36:00;;;;;;;0.40;0.40;;;;;;;2.65;100.00;100535.59;5048811;28;20366;-69
2024/02/15 03:38:29;;;;;;;0.50;0.50;;;;;;;2.66;100.00;100546.72;5048896;28;20092;-68
2024/02/15 03:40:58;;;;;;;0.40;0.40;;;;;;;2.63;100.00;100539.84;5048650;28;20049;-68
2024/02/15 03:43:24;;;;;;;0.40;0.40;;;;;;;2.61;100.00;100541.50;5066830;28;20029;-68
2024/02/15 03:45:50;;;;;;;0.60;0.60;;;;;;;2.63;100.00;100534.72;5066788;28;20026;-67
2024/02/15 03:48:15;;;;;;;0.40;0.40;;;;;;;2.58;100.00;100536.28;5066722;28;20024;-69
2024/02/15 03:50:41;;;;;;;0.40;0.40;;;;;;;2.62;100.00;100538.09;5066405;28;20021;-67
2024/02/15 03:53:06;;;;;;;0.50;0.50;;;;;;;2.57;100.00;100527.72;5065419;28;20085;-67
2024/02/15 03:55:33;;;;;;;0.43;0.43;;;;;;;2.56;100.00;100532.78;5066598;28;20036;-67
2024/02/15 03:57:58;;;;;;;0.40;0.40;;;;;;;2.53;100.00;100541.28;5066613;28;20024;-67
2024/02/15 04:00:24;;;;;;;0.40;0.40;;;;;;;2.52;100.00;100541.25;5048370;28;20302;-68
2024/02/15 04:02:50;;;;;;;0.45;0.45;;;;;;;2.47;100.00;100536.88;5066592;28;20050;-67
2024/02/15 04:05:15;;;;;;;0.40;0.40;;;;;;;2.48;100.00;100533.47;5066554;28;20048;-67
2024/02/15 04:07:41;;;;;;;0.50;0.50;;;;;;;2.38;100.00;100516.09;5066067;28;20025;-67
2024/02/15 04:10:08;;;;;;;1.05;1.05;;;;;;;2.51;100.00;100542.09;5066114;28;20025;-66
2024/02/15 04:12:33;;;;;;;0.40;0.40;;;;;;;2.53;100.00;100540.41;5066294;28;20025;-67
2024/02/15 04:15:05;;;;;;;0.40;0.40;;;;;;;2.45;100.00;100528.28;5066073;28;20033;-67
2024/02/15 04:17:32;;;;;;;0.60;0.60;;;;;;;2.45;100.00;100533.41;5066425;28;20455;-67
2024/02/15 04:19:58;;;;;;;0.50;0.50;;;;;;;2.48;100.00;100548.84;5065956;28;20025;-67
2024/02/15 04:22:23;;;;;;;0.40;0.40;;;;;;;2.48;100.00;100548.84;5065918;28;20060;-67
2024/02/15 04:24:49;;;;;;;0.40;0.40;;;;;;;2.52;100.00;100549.81;5066121;28;20060;-68
2024/02/15 04:27:15;;;;;;;0.40;0.40;;;;;;;2.49;100.00;100544.59;5065927;28;20017;-67
2024/02/15 04:29:43;;;;;;;0.50;0.50;;;;;;;2.45;100.00;100533.41;5065708;28;20049;-67
2024/02/15 04:32:11;;;;;;;0.40;0.40;;;;;;;2.46;100.00;100529.16;5065691;28;20021;-67
2024/02/15 04:34:37;;;;;;;0.65;0.65;;;;;;;2.49;100.00;100539.47;5065452;28;20104;-67
2024/02/15 04:37:06;;;;;;;0.40;0.40;;;;;;;2.46;100.00;100532.56;5065736;28;20021;-67
2024/02/15 04:39:36;;;;;;;0.40;0.40;;;;;;;2.53;100.00;100548.09;5066105;28;20024;-68
2024/02/15 04:42:02;;;;;;;0.50;0.50;;;;;;;2.48;100.00;100538.59;5065445;28;20056;-67
2024/02/15 04:44:27;;;;;;;0.40;0.40;;;;;;;2.50;100.00;100533.50;5047842;28;20060;-67
2024/02/15 04:46:54;;;;;;;0.50;0.50;;;;;;;2.48;100.00;100530.91;5065619;28;20061;-68
2024/02/15 04:49:25;;;;;;;0.77;0.77;;;;;;;2.42;100.00;100517.94;5065582;28;20033;-68
2024/02/15 04:51:51;;;;;;;0.60;0.60;;;;;;;2.46;100.00;100527.44;5047566;28;20611;-68
2024/02/15 04:54:18;;;;;;;0.40;0.40;;;;;;;2.43;100.00;100534.19;5065226;28;20037;-68
2024/02/15 04:56:43;;;;;;;0.43;0.43;;;;;;;2.37;100.00;100529.75;5065534;28;20025;-68
2024/02/15 04:59:15;;;;;;;0.40;0.40;;;;;;;2.40;100.00;100528.94;5065456;28;20055;-68
2024/02/15 05:01:42;;;;;;;0.50;0.50;;;;;;;2.37;100.00;100532.31;5047382;28;20060;-67
2024/02/15 05:04:11;;;;;;;0.50;0.50;;;;;;;2.38;100.00;100535.75;5047143;28;20029;-68
2024/02/15 05:06:37;;;;;;;0.50;0.50;;;;;;;2.36;100.00;100538.28;5065155;28;20072;-68
2024/02/15 05:09:12;;;;;;;0.50;0.50;;;;;;;2.30;100.00;100538.94;5065009;28;20045;-68
2024/02/15 05:11:41;;;;;;;0.43;0.43;;;;;;;2.34;100.00;100539.91;5065182;28;20055;-67
2024/02/15 05:14:07;;;;;;;0.50;0.50;;;;;;;2.32;100.00;100537.31;5047088;28;20039;-66
2024/02/15 05:16:41;;;;;;;0.60;0.60;;;;;;;2.28;100.00;100532.06;5047182;28;20029;-67
2024/02/15 05:19:07;;;;;;;0.40;0.40;;;;;;;2.21;100.00;100537.00;5065316;28;20017;-66
2024/02/15 05:21:33;;;;;;;0.40;0.40;;;;;;;2.19;100.00;100535.25;5064887;28;20067;-67
2024/02/15 05:23:59;;;;;;;0.40;0.40;;;;;;;2.18;100.00;100536.94;5047080;28;20032;-66
2024/02/15 05:26:24;;;;;;;0.43;0.43;;;;;;;2.19;100.00;100530.97;5065464;28;20017;-66
2024/02/15 05:28:50;;;;;;;0.40;0.40;;;;;;;2.18;100.00;100529.25;5065029;28;20032;-68
2024/02/15 05:31:19;;;;;;;0.40;0.40;;;;;;;2.21;100.00;100531.00;5064899;28;20054;-66
2024/02/15 05:33:47;;;;;;;0.50;0.50;;;;;;;2.22;100.00;100525.94;5064654;28;20045;-67
2024/02/15 05:36:20;;;;;;;1.48;1.40;;;;;;;2.19;100.00;100523.28;5064728;28;20029;-66
2024/02/15 05:38:46;;;;;;;0.40;0.40;;;;;;;2.21;100.00;100526.78;5047517;28;20103;-71
2024/02/15 05:41:12;;;;;;;0.40;0.40;;;;;;;2.20;100.00;100517.34;5066047;28;20494;-68
2024/02/15 05:43:39;;;;;;;0.40;0.40;;;;;;;2.22;100.00;100536.19;5065250;28;20036;-67
2024/02/15 05:46:08;;;;;;;0.50;0.50;;;;;;;2.22;100.00;100540.47;5064741;28;20014;-67
2024/02/15 05:48:36;;;;;;;0.43;0.43;;;;;;;2.26;100.00;100537.16;5046676;28;20025;-67
2024/02/15 05:51:06;;;;;;;0.40;0.40;;;;;;;2.27;100.00;100541.44;5064645;28;20025;-68
2024/02/15 05:53:35;;;;;;;0.40;0.40;;;;;;;2.26;100.00;100538.81;5064851;28;20020;-67
2024/02/15 05:56:04;;;;;;;0.40;0.40;;;;;;;2.26;100.00;100542.28;5046400;28;20021;-68
2024/02/15 05:58:30;;;;;;;0.50;0.50;;;;;;;2.22;100.00;100546.44;5065116;28;20021;-67
2024/02/15 06:01:00;;;;;;;0.40;0.40;;;;;;;2.24;100.00;100536.22;5064939;28;20020;-67
2024/02/15 06:03:26;;;;;;;0.47;0.47;;;;;;;2.24;100.00;100536.22;5046790;28;20044;-67
2024/02/15 06:05:51;;;;;;;0.40;0.40;;;;;;;2.23;100.00;100540.50;5064921;28;20039;-67
2024/02/15 06:08:18;;;;;;;0.50;0.50;;;;;;;2.23;100.00;100540.50;5064611;28;20044;-66
2024/02/15 06:10:44;;;;;;;0.45;0.45;;;;;;;2.20;100.00;100539.53;5046571;28;20032;-66
2024/02/15 06:13:09;;;;;;;0.40;0.40;;;;;;;2.23;100.00;100547.31;5046730;28;20025;-67
2024/02/15 06:15:35;;;;;;;0.50;0.50;;;;;;;2.24;100.00;100554.16;5066079;28;20517;-67
2024/02/15 06:18:00;;;;;;;0.40;0.40;;;;;;;2.22;100.00;100558.38;5068612;28;20456;-68
2024/02/15 06:20:29;;;;;;;0.40;0.40;;;;;;;2.19;100.00;100550.63;5050623;28;20021;-67
2024/02/15 06:22:55;;;;;;;0.40;0.40;;;;;;;2.22;100.00;100556.69;5068346;28;20025;-68
2024/02/15 06:25:20;;;;;;;0.50;0.50;;;;;;;2.21;100.00;100554.94;5068369;28;20055;-68
2024/02/15 06:27:46;;;;;;;0.43;0.43;;;;;;;2.19;100.00;100548.06;5068577;28;20107;-67
2024/02/15 06:41:09;;;;;;;0.50;0.50;;;;;;;2.19;100.00;100538.66;5068423;28;20515;-68
2024/02/15 06:43:35;;;;;;;1.20;1.10;;;;;;;2.20;100.00;100553.22;5067977;28;20029;-69
2024/02/15 06:46:02;;;;;;;0.40;0.40;;;;;;;2.20;100.00;100558.34;5050221;28;20021;-69
2024/02/15 06:48:28;;;;;;;0.50;0.50;;;;;;;2.23;100.00;100557.56;5049967;28;20040;-70
2024/02/15 06:50:53;;;;;;;1.33;1.05;;;;;;;2.22;100.00;100560.94;5067974;28;20024;-68
2024/02/15 06:53:20;;;;;;;0.40;0.40;;;;;;;2.21;100.00;100552.38;5067657;28;20021;-69
2024/02/15 06:55:48;;;;;;;0.45;0.45;;;;;;;2.27;100.00;100551.69;5050035;28;20128;-68
2024/02/15 06:58:15;;;;;;;0.40;0.40;;;;;;;2.27;100.00;100544.00;5067976;28;20028;-69
2024/02/15 07:00:42;;;;;;;0.40;0.40;;;;;;;2.32;100.00;100542.44;5067951;28;20017;-69
2024/02/15 07:03:08;;;;;;;0.50;0.50;;;;;;;2.29;100.00;100544.03;5049956;28;20041;-69
2024/02/15 07:05:33;;;;;;;0.50;0.50;;;;;;;2.24;100.00;100549.03;5068216;28;20041;-69
2024/02/15 07:07:59;;;;;;;0.40;0.40;;;;;;;2.27;100.00;100563.63;5067641;28;20469;-69
2024/02/15 07:10:24;;;;;;;0.40;0.40;;;;;;;2.27;100.00;100579.00;5049755;28;20021;-68
2024/02/15 07:12:50;;;;;;;0.40;0.40;;;;;;;2.27;100.00;100579.00;5067847;28;20083;-68
2024/02/15 07:15:17;;;;;;;0.40;0.40;;;;;;;2.31;100.00;100586.84;5067639;28;20029;-69
2024/02/15 07:17:42;;;;;;;0.40;0.40;;;;;;;2.30;100.00;100567.13;5067712;28;20048;-69
2024/02/15 07:20:10;;;;;;;0.40;0.40;;;;;;;2.35;100.00;100577.50;5049633;28;20025;-68
2024/02/15 07:22:37;;;;;;;0.50;0.50;;;;;;;2.35;100.00;100570.69;5067299;28;20025;-69
2024/02/15 07:25:04;;;;;;;0.43;0.43;;;;;;;2.38;100.00;100577.59;5067761;28;20032;-69
2024/02/15 07:27:29;;;;;;;0.60;0.60;;;;;;;2.37;100.00;100578.44;5067388;28;20033;-68
2024/02/15 07:29:55;;;;;;;0.50;0.50;;;;;;;2.39;100.00;100579.34;5049643;28;20108;-70
2024/02/15 07:32:21;;;;;;;0.40;0.40;;;;;;;2.39;100.00;100574.22;5067364;28;20029;-69
2024/02/15 07:34:47;;;;;;;0.40;0.40;;;;;;;2.38;100.00;100572.47;5067203;28;20045;-68
2024/02/15 07:37:15;;;;;;;0.50;0.50;;;;;;;2.41;100.00;100572.56;5067069;28;20028;-68
2024/02/15 07:39:41;;;;;;;0.40;0.40;;;;;;;2.40;100.00;100565.72;5067215;28;20021;-70
2024/02/15 07:42:08;;;;;;;0.60;0.60;;;;;;;2.40;100.00;100570.81;5067017;28;20023;-69
2024/02/15 07:44:36;;;;;;;0.40;0.40;;;;;;;2.35;100.00;100555.34;5067132;28;20370;-69
2024/02/15 07:47:02;;;;;;;0.50;0.50;;;;;;;2.39;100.00;100555.41;5049214;28;20017;-70
2024/02/15 07:49:27;;;;;;;0.40;0.40;;;;;;;2.36;100.00;100558.78;5049178;28;20028;-69
2024/02/15 07:51:53;;;;;;;0.50;0.50;;;;;;;2.43;100.00;100565.78;5067057;28;20481;-69
2024/02/15 07:54:22;;;;;;;0.47;0.47;;;;;;;2.48;100.00;100551.41;5066988;28;20037;-70
2024/02/15 07:56:48;;;;;;;0.40;0.40;;;;;;;2.48;100.00;100565.91;5066805;28;20021;-70
2024/02/15 07:59:16;;;;;;;0.40;0.40;;;;;;;2.50;100.00;100571.06;5066880;28;20080;-70
2024/02/15 08:01:42;;;;;;;0.40;0.40;;;;;;;2.47;100.00;100569.31;5048028;28;20393;-70
2024/02/15 08:04:08;;;;;;;0.50;0.50;;;;;;;2.45;100.00;100569.28;5046624;28;20021;-69
2024/02/15 08:06:36;;;;;;;0.40;0.40;;;;;;;2.47;100.00;100570.19;5046658;28;20099;-70
2024/02/15 08:09:04;;;;;;;0.40;0.40;;;;;;;2.45;100.00;100578.66;5064470;28;20052;-70
2024/02/15 08:11:30;;;;;;;0.80;0.80;;;;;;;2.48;100.00;100571.91;5046688;28;20032;-69
2024/02/15 08:13:59;;;;;;;0.40;0.40;;;;;;;2.51;100.00;100562.59;5064658;28;20029;-70
2024/02/15 08:16:27;;;;;;;0.40;0.40;;;;;;;2.48;100.00;100553.97;5064636;28;20044;-71
2024/02/15 08:18:54;;;;;;;0.40;0.40;;;;;;;2.53;100.00;100556.66;5046766;28;20072;-70
2024/02/15 08:21:32;;;;;;;0.43;0.43;;;;;;;2.48;100.00;100553.09;5046717;28;20529;-71
2024/02/15 08:24:05;;;;;;;0.50;0.50;;;;;;;2.47;100.00;100553.94;5046662;28;20373;-70
2024/02/15 08:26:35;;;;;;;0.40;0.40;;;;;;;2.42;100.00;100537.56;5064769;28;20096;-70
2024/02/15 08:29:00;;;;;;;0.50;0.50;;;;;;;2.48;100.00;100545.41;5064912;28;20032;-69
2024/02/15 08:31:25;;;;;;;0.40;0.40;;;;;;;2.45;100.00;100543.66;5065426;28;20025;-71
2024/02/15 08:33:51;;;;;;;0.40;0.40;;;;;;;2.49;100.00;100544.59;5065172;28;20079;-71
2024/02/15 08:36:16;;;;;;;0.40;0.40;;;;;;;2.56;100.00;100551.63;5065602;28;20021;-70
2024/02/15 08:38:41;;;;;;;0.40;0.40;;;;;;;2.57;100.00;100547.38;5046719;28;20075;-71
2024/02/15 08:41:08;;;;;;;0.40;0.40;;;;;;;2.58;100.00;100544.84;5047550;28;20397;-70
2024/02/15 08:43:34;;;;;;;0.40;0.40;;;;;;;2.49;100.00;100526.66;5047481;28;20024;-70
2024/02/15 08:45:59;;;;;;;0.43;0.43;;;;;;;2.55;100.00;100523.38;5065436;28;20028;-72
2024/02/15 08:48:25;;;;;;;0.40;0.40;;;;;;;2.60;100.00;100517.53;5065424;28;20024;-71
2024/02/15 08:50:53;;;;;;;0.40;0.40;;;;;;;2.48;100.00;100501.84;5047138;28;20016;-71
2024/02/15 08:53:19;;;;;;;0.40;0.40;;;;;;;2.70;100.00;100526.34;5065161;28;20021;-71
2024/02/15 08:55:48;;;;;;;0.40;0.40;;;;;;;2.72;100.00;100522.13;5065008;28;20025;-70
2024/02/15 08:58:14;;;;;;;0.40;0.40;;;;;;;2.70;100.00;100518.66;5064915;28;20043;-70
2024/02/15 09:00:44;;;;;;;0.40;0.40;;;;;;;2.74;100.00;100540.13;5064979;28;20112;-71
2024/02/15 09:03:10;;;;;;;0.40;0.40;;;;;;;2.72;100.00;100534.06;5047181;28;20028;-71
2024/02/15 09:05:35;;;;;;;0.40;0.40;;;;;;;2.77;100.00;100545.31;5064747;28;20076;-71
2024/02/15 09:08:00;;;;;;;1.02;0.90;;;;;;;2.71;100.00;100535.78;5064812;28;20024;-70
2024/02/15 09:10:27;;;;;;;0.50;0.50;;;;;;;2.69;100.00;100547.69;5064874;28;20058;-71
2024/02/15 09:12:52;;;;;;;0.40;0.40;;;;;;;2.70;100.00;100534.03;5046729;28;20112;-70
2024/02/15 09:15:17;;;;;;;0.40;0.40;;;;;;;2.71;100.00;100537.47;5064889;28;20024;-69
2024/02/15 09:17:45;;;;;;;0.40;0.40;;;;;;;2.71;100.00;100551.16;5046983;28;20021;-70
2024/02/15 09:20:15;;;;;;;0.52;0.52;;;;;;;2.71;100.00;100537.47;5046935;28;20016;-70
2024/02/15 09:22:49;;;;;;;0.40;0.40;;;;;;;2.78;100.00;100538.50;5046736;28;20051;-69
2024/02/15 09:25:14;;;;;;;0.40;0.40;;;;;;;2.79;100.00;100530.84;5065089;28;20352;-69
2024/02/15 09:27:40;;;;;;;0.40;0.40;;;;;;;2.77;100.00;100521.38;5064574;28;20021;-69
2024/02/15 09:30:09;;;;;;;0.50;0.50;;;;;;;2.82;100.00;100524.94;5064667;28;20025;-69
2024/02/15 09:32:41;;;;;;;0.60;0.60;;;;;;;2.88;100.00;100532.78;5046692;28;20135;-68
2024/02/15 09:35:08;;;;;;;0.40;0.40;;;;;;;2.91;100.00;100537.97;5064820;28;20052;-69
2024/02/15 09:37:35;;;;;;;0.40;0.40;;;;;;;2.89;100.00;100542.19;5046361;28;20386;-68
2024/02/15 09:40:05;;;;;;;0.65;0.65;;;;;;;2.89;100.00;100538.78;5064653;28;20025;-68
2024/02/15 09:42:31;;;;;;;0.50;0.50;;;;;;;2.90;100.00;100543.06;5064674;28;20021;-68
2024/02/15 09:44:56;;;;;;;0.40;0.40;;;;;;;2.92;100.00;100546.53;5046670;28;20088;-68
2024/02/15 09:47:24;;;;;;;0.43;0.43;;;;;;;2.89;100.00;100539.63;5064729;28;20017;-68
2024/02/15 09:49:49;;;;;;;0.40;0.40;;;;;;;2.93;100.00;100548.28;5048680;28;20132;-68
2024/02/15 09:52:18;;;;;;;0.77;0.77;;;;;;;2.91;100.00;100547.34;5050561;28;20377;-68
2024/02/15 09:54:43;;;;;;;0.40;0.40;;;;;;;2.99;100.00;100540.72;5068735;28;20032;-67
2024/02/15 09:57:12;;;;;;;0.40;0.40;;;;;;;3.07;100.00;100534.09;5068681;28;20021;-68
2024/02/15 09:59:39;;;;;;;0.40;0.40;;;;;;;3.19;100.00;100545.50;5068657;28;20029;-68
2024/02/15 10:02:38;;;;;;;0.50;0.50;;;;;;;3.29;100.00;100549.16;5067007;22;20036;-65
2024/02/15 10:05:03;;;;;;;0.50;0.50;;;;;;;3.30;100.00;100544.06;5027338;28;20042;-64
2024/02/15 10:07:29;;;;;;;0.40;0.40;;;;;;;3.33;100.00;100543.25;5026727;28;20116;-64
2024/02/15 10:09:54;;;;;;;0.40;0.40;;;;;;;3.40;100.00;100540.00;5027316;28;20078;-64
2024/02/15 10:12:23;;;;;;;0.40;0.40;;;;;;;3.44;100.00;100546.94;5027128;28;20021;-66
2024/02/15 10:14:50;;;;;;;0.50;0.50;;;;;;;3.55;100.00;100559.13;5026871;28;20026;-65
2024/02/15 10:17:17;;;;;;;0.50;0.50;;;;;;;3.65;100.00;100557.66;5027061;28;20044;-64
2024/02/15 10:19:43;;;;;;;0.47;0.47;;;;;;;3.67;100.00;100550.88;5027134;28;20454;-64
2024/02/15 10:22:10;;;;;;;0.50;0.50;;;;;;;3.65;100.00;100548.25;5027054;28;20044;-64
2024/02/15 10:24:39;;;;;;;0.40;0.40;;;;;;;3.62;100.00;100543.06;5026799;28;20076;-63
2024/02/15 10:27:06;;;;;;;0.40;0.40;;;;;;;3.66;100.00;100544.84;5026919;28;20065;-64
2024/02/15 10:29:35;;;;;;;0.52;0.52;;;;;;;3.62;100.00;100543.06;5026937;28;20041;-63
2024/02/15 10:32:02;;;;;;;0.50;0.50;;;;;;;3.59;100.00;100530.16;5055609;23;20041;-64
2024/02/15 10:34:28;;;;;;;0.40;0.40;;;;;;;3.58;100.00;100516.44;5045546;28;20374;-64
2024/02/15 10:37:16;;;;;;;0.40;0.40;;;;;;;3.59;100.00;100522.47;5046251;28;20021;-65
2024/02/15 10:42:18;;;;;;;0.40;0.40;;;;;;;3.73;100.00;100525.31;5004762;28;20061;-67
2024/02/15 10:44:45;;;;;;;0.40;0.40;;;;;;;3.69;100.00;100519.25;5006612;28;20023;-67
2024/02/15 10:47:10;;;;;;;0.40;0.40;;;;;;;3.75;100.00;100517.66;4989171;28;20018;-68
2024/02/15 10:49:36;;;;;;;0.40;0.40;;;;;;;3.79;100.00;100515.19;5006470;28;20037;-67
2024/02/15 10:52:04;;;;;;;0.50;0.50;;;;;;;3.95;100.00;100510.34;5006638;28;20034;-68
2024/02/15 10:54:48;;;;;;;0.50;0.50;;;;;;;3.98;100.00;100518.13;5006578;28;20033;-68
2024/02/15 10:57:22;;;;;;;0.40;0.40;;;;;;;3.99;100.00;100506.16;5005365;28;20050;-68
2024/02/15 10:59:55;;;;;;;0.50;0.50;;;;;;;3.90;100.00;100497.41;4989308;28;20029;-68
2024/02/15 11:02:30;;;;;;;0.40;0.40;;;;;;;3.95;100.00;100498.38;4988338;28;20121;-68
2024/02/15 11:05:03;;;;;;;0.40;0.40;;;;;;;3.93;100.00;100497.47;5006959;28;20034;-69
2024/02/15 11:07:30;;;;;;;0.47;0.47;;;;;;;3.93;100.00;100505.19;5005355;28;20397;-68
2024/02/15 11:09:57;;;;;;;0.40;0.40;;;;;;;3.89;100.00;100490.56;5006548;28;20045;-68
2024/02/15 11:12:23;;;;;;;0.40;0.40;;;;;;;3.87;100.00;100492.22;5006578;28;20522;-69
2024/02/15 11:14:51;;;;;;;0.40;0.40;;;;;;;3.90;100.00;100496.56;5006606;28;20031;-68
2024/02/15 11:17:39;;;;;;;0.40;0.40;;;;;;;3.91;100.00;100488.91;5006268;28;20022;-67
2024/02/15 11:20:11;;;;;;;0.50;0.50;;;;;;;3.92;100.00;100500.03;5006480;28;20106;-69
2024/02/15 11:22:37;;;;;;;0.52;0.52;;;;;;;3.94;100.00;100495.78;4988984;28;20030;-68
2024/02/15 11:25:11;;;;;;;0.50;0.50;;;;;;;3.93;100.00;100501.78;5005171;28;20026;-69
2024/02/15 11:27:39;;;;;;;0.40;0.40;;;;;;;3.93;100.00;100491.50;4988852;28;20057;-68
2024/02/15 11:32:34;;;;;;;0.40;0.40;;;;;;;4.05;100.00;100501.13;5006590;28;20027;-69
2024/02/15 11:35:10;;;;;;;0.40;0.40;;;;;;;3.96;100.00;100497.53;5006271;28;20018;-69
2024/02/15 11:37:55;;;;;;;0.40;0.40;;;;;;;4.01;100.00;100496.78;5006861;28;20018;-69
2024/02/15 11:40:28;;;;;;;0.40;0.40;;;;;;;4.00;100.00;100484.75;5006518;28;20066;-69